createdAt,value
2018-12-06T00:00:18.774Z,5.54
2018-12-06T00:02:48.550Z,5.54
2018-12-06T00:05:18.615Z,5.52
2018-12-06T00:07:59.016Z,5.36
2018-12-06T00:10:29.335Z,5.34
2018-12-06T00:12:58.804Z,5.48
2018-12-06T00:15:29.686Z,5.33
2018-12-06T00:18:00.010Z,5.49
2018-12-06T00:20:29.825Z,5.28
2018-12-06T00:22:59.804Z,5.38
2018-12-06T00:25:31.013Z,5.51
2018-12-06T00:28:01.067Z,5.51
2018-12-06T00:30:40.465Z,5.51
2018-12-06T00:33:10.889Z,5.52
2018-12-06T00:35:41.128Z,5.55
2018-12-06T00:38:11.177Z,5.57
2018-12-06T00:40:40.650Z,5.58
2018-12-06T00:43:10.710Z,5.59
2018-12-06T00:45:40.956Z,5.63
2018-12-06T00:48:11.362Z,5.65
2018-12-06T00:50:41.365Z,5.41
2018-12-06T00:53:11.425Z,5.66
2018-12-06T00:55:42.463Z,5.57
2018-12-06T00:58:12.439Z,5.68
2018-12-06T01:00:42.538Z,5.68
2018-12-06T01:03:12.253Z,5.57
2018-12-06T01:05:42.304Z,5.71
2018-12-06T01:08:11.788Z,5.74
2018-12-06T01:10:42.028Z,5.73
2018-12-06T01:13:12.030Z,5.64
2018-12-06T01:15:42.037Z,5.78
2018-12-06T01:18:12.365Z,5.82
2018-12-06T01:20:42.514Z,5.78
2018-12-06T01:23:13.147Z,5.56
2018-12-06T01:25:43.520Z,5.82
2018-12-06T01:28:13.566Z,5.82
2018-12-06T01:30:43.706Z,5.82
2018-12-06T01:33:14.107Z,5.82
2018-12-06T01:35:44.153Z,5.67
2018-12-06T01:38:14.257Z,5.83
2018-12-06T01:40:44.361Z,5.85
2018-12-06T01:43:14.413Z,5.86
2018-12-06T01:45:45.085Z,5.90
2018-12-06T01:48:15.082Z,5.93
2018-12-06T01:50:45.881Z,5.94
2018-12-06T01:53:15.908Z,5.98
2018-12-06T01:55:45.760Z,6.01
2018-12-06T01:58:16.111Z,6.04
2018-12-06T02:00:45.923Z,5.90
2018-12-06T02:03:16.042Z,6.06
2018-12-06T02:05:46.003Z,6.12
2018-12-06T02:08:16.470Z,6.14
2018-12-06T02:10:46.463Z,6.17
2018-12-06T02:13:17.026Z,6.06
2018-12-06T02:15:48.090Z,6.22
2018-12-06T02:18:18.074Z,6.11
2018-12-06T02:20:48.091Z,6.24
2018-12-06T02:23:18.607Z,5.99
2018-12-06T02:25:48.650Z,6.27
2018-12-06T02:28:19.531Z,6.28
2018-12-06T02:30:49.880Z,6.30
2018-12-06T02:33:20.567Z,5.60
2018-12-06T02:35:50.595Z,6.33
2018-12-06T02:38:21.105Z,6.34
2018-12-06T02:40:51.164Z,6.35
2018-12-06T02:43:21.395Z,6.11
2018-12-06T02:45:51.783Z,6.38
2018-12-06T02:48:21.758Z,6.38
2018-12-06T02:50:51.809Z,6.40
2018-12-06T02:53:22.943Z,6.40
2018-12-06T02:55:52.942Z,6.43
2018-12-06T02:58:23.596Z,6.33
2018-12-06T03:00:55.007Z,6.47
2018-12-06T03:03:25.118Z,6.49
2018-12-06T03:05:55.177Z,6.50
2018-12-06T03:08:25.840Z,6.50
2018-12-06T03:10:55.885Z,6.27
2018-12-06T03:13:25.924Z,6.52
2018-12-06T03:15:56.243Z,6.40
2018-12-06T03:18:26.351Z,6.52
2018-12-06T03:20:56.326Z,6.54
2018-12-06T03:23:26.870Z,6.54
2018-12-06T03:25:56.974Z,6.54
2018-12-06T03:28:26.951Z,6.31
2018-12-06T03:30:58.005Z,6.54
2018-12-06T03:33:28.760Z,6.56
2018-12-06T03:35:58.923Z,6.59
2018-12-06T03:38:29.342Z,6.48
2018-12-06T03:40:59.331Z,6.61
2018-12-06T03:43:30.263Z,6.64
2018-12-06T03:46:00.657Z,6.65
2018-12-06T03:48:30.439Z,6.67
2018-12-06T03:51:00.558Z,6.65
2018-12-06T03:53:30.840Z,6.68
2018-12-06T03:56:00.918Z,6.69
2018-12-06T03:58:30.990Z,6.69
2018-12-06T04:01:01.363Z,6.70
2018-12-06T04:03:31.434Z,6.44
2018-12-06T04:06:01.503Z,6.46
2018-12-06T04:08:31.537Z,6.70
2018-12-06T04:11:01.509Z,6.71
2018-12-06T04:13:31.702Z,6.71
2018-12-06T04:16:01.718Z,6.71
2018-12-06T04:18:31.807Z,6.73
2018-12-06T04:21:02.462Z,6.76
2018-12-06T04:23:32.586Z,6.69
2018-12-06T04:26:02.502Z,6.78
2018-12-06T04:28:32.650Z,6.79
2018-12-06T04:31:07.163Z,6.81
2018-12-06T04:33:38.055Z,6.81
2018-12-06T04:36:08.092Z,6.84
2018-12-06T04:38:39.191Z,6.83
2018-12-06T04:41:08.992Z,5.24
2018-12-06T04:46:16.840Z,5.36
2018-12-06T04:48:46.818Z,6.93
2018-12-06T04:51:17.210Z,6.93
2018-12-06T04:53:47.282Z,6.94
2018-12-06T04:56:17.378Z,6.61
2018-12-06T04:58:47.759Z,6.95
2018-12-06T05:01:17.814Z,6.98
2018-12-06T05:03:47.731Z,7.00
2018-12-06T05:06:18.055Z,7.01
2018-12-06T05:08:48.231Z,7.02
2018-12-06T05:11:18.531Z,7.01
2018-12-06T05:13:48.531Z,6.97
2018-12-06T05:16:19.109Z,6.36
2018-12-06T05:18:49.249Z,6.93
2018-12-06T05:21:19.945Z,6.91
2018-12-06T05:23:51.369Z,6.92
2018-12-06T05:26:21.464Z,6.96
2018-12-06T05:28:51.687Z,6.98
2018-12-06T05:31:22.117Z,6.99
2018-12-06T05:33:52.798Z,6.97
2018-12-06T05:36:24.111Z,6.93
2018-12-06T05:38:53.733Z,6.93
2018-12-06T05:41:23.649Z,6.94
2018-12-06T05:43:53.895Z,6.94
2018-12-06T05:46:23.350Z,6.95
2018-12-06T05:48:53.882Z,6.94
2018-12-06T05:51:23.970Z,6.95
2018-12-06T05:53:53.887Z,6.62
2018-12-06T05:56:24.547Z,6.91
2018-12-06T05:58:54.922Z,6.91
2018-12-06T06:01:25.330Z,6.89
2018-12-06T06:04:00.556Z,6.54
2018-12-06T06:06:31.027Z,6.86
2018-12-06T06:09:01.823Z,6.84
2018-12-06T06:11:32.051Z,6.83
2018-12-06T06:14:02.947Z,6.84
2018-12-06T06:16:32.547Z,6.85
2018-12-06T06:19:02.240Z,6.62
2018-12-06T06:21:32.504Z,6.85
2018-12-06T06:24:02.721Z,6.84
2018-12-06T06:26:32.229Z,6.84
2018-12-06T06:29:02.584Z,6.84
2018-12-06T06:31:32.163Z,6.85
2018-12-06T06:34:01.807Z,6.85
2018-12-06T06:36:31.686Z,6.84
2018-12-06T06:39:01.365Z,6.85
2018-12-06T06:41:30.898Z,6.85
2018-12-06T06:44:01.176Z,6.87
2018-12-06T06:46:30.834Z,6.90
2018-12-06T06:49:00.468Z,6.90
2018-12-06T06:51:30.876Z,6.90
2018-12-06T06:54:00.884Z,6.53
2018-12-06T06:56:30.434Z,6.88
2018-12-06T06:59:00.364Z,6.86
2018-12-06T07:01:30.068Z,6.85
2018-12-06T07:04:00.430Z,6.82
2018-12-06T07:06:30.253Z,6.83
2018-12-06T07:08:59.935Z,6.79
2018-12-06T07:11:29.472Z,6.79
2018-12-06T07:13:59.856Z,6.79
2018-12-06T07:16:29.363Z,6.81
2018-12-06T07:18:59.955Z,6.83
2018-12-06T07:21:29.845Z,6.81
2018-12-06T07:23:59.319Z,6.64
2018-12-06T07:26:30.097Z,6.73
2018-12-06T07:28:59.914Z,6.59
2018-12-06T07:31:29.460Z,6.68
2018-12-06T07:33:59.056Z,6.65
2018-12-06T07:36:29.321Z,6.61
2018-12-06T07:38:59.306Z,5.30
2018-12-06T07:41:28.946Z,6.42
2018-12-06T07:43:59.283Z,6.50
2018-12-06T07:46:28.790Z,6.49
2018-12-06T07:48:58.765Z,5.17
2018-12-06T07:51:28.808Z,6.50
2018-12-06T07:53:58.364Z,6.52
2018-12-06T07:56:27.974Z,5.58
2018-12-06T07:58:57.728Z,6.62
2018-12-06T08:01:27.416Z,6.36
2018-12-06T08:03:57.207Z,6.75
2018-12-06T08:06:27.220Z,6.83
2018-12-06T08:08:56.719Z,6.93
2018-12-06T08:11:26.428Z,7.00
2018-12-06T08:13:56.991Z,7.07
2018-12-06T08:16:26.564Z,7.16
2018-12-06T08:18:56.182Z,7.24
2018-12-06T08:21:26.638Z,7.31
2018-12-06T08:23:56.175Z,7.36
2018-12-06T08:26:25.693Z,7.43
2018-12-06T08:28:55.594Z,7.46
2018-12-06T08:31:25.149Z,7.50
2018-12-06T08:33:54.738Z,7.24
2018-12-06T08:36:24.902Z,6.97
2018-12-06T08:38:54.468Z,7.68
2018-12-06T08:41:24.219Z,7.75
2018-12-06T08:43:54.921Z,6.88
2018-12-06T08:46:24.644Z,7.89
2018-12-06T08:48:54.159Z,7.94
2018-12-06T08:51:24.048Z,7.99
2018-12-06T08:53:54.386Z,7.93
2018-12-06T08:56:24.022Z,8.07
2018-12-06T08:58:53.895Z,8.10
2018-12-06T09:01:23.578Z,8.14
2018-12-06T09:03:53.292Z,8.13
2018-12-06T09:06:23.379Z,8.02
2018-12-06T09:08:52.884Z,8.14
2018-12-06T09:11:22.482Z,8.04
2018-12-06T09:13:52.375Z,8.17
2018-12-06T09:16:21.931Z,8.20
2018-12-06T09:18:51.442Z,8.24
2018-12-06T09:21:21.394Z,8.30
2018-12-06T09:23:50.947Z,8.25
2018-12-06T09:26:20.530Z,8.42
2018-12-06T09:28:50.637Z,8.48
2018-12-06T09:31:20.390Z,8.48
2018-12-06T09:34:00.019Z,8.50
2018-12-06T09:36:29.863Z,8.19
2018-12-06T09:38:59.959Z,8.53
2018-12-06T09:41:30.556Z,8.54
2018-12-06T09:44:01.007Z,8.53
2018-12-06T09:46:33.886Z,8.56
2018-12-06T09:49:05.118Z,8.46
2018-12-06T09:51:35.491Z,8.63
2018-12-06T09:54:05.195Z,8.65
2018-12-06T09:56:34.986Z,8.68
2018-12-06T09:59:05.320Z,8.20
2018-12-06T10:01:34.858Z,8.76
2018-12-06T10:04:04.422Z,8.78
2018-12-06T10:06:34.355Z,8.76
2018-12-06T10:09:04.226Z,8.74
2018-12-06T10:11:33.982Z,8.73
2018-12-06T10:14:03.959Z,8.73
2018-12-06T10:16:33.606Z,7.68
2018-12-06T10:19:03.170Z,8.70
2018-12-06T10:21:33.010Z,8.59
2018-12-06T10:24:02.555Z,8.67
2018-12-06T10:26:32.133Z,8.66
2018-12-06T10:29:02.995Z,8.63
2018-12-06T10:31:33.706Z,8.58
2018-12-06T10:34:04.886Z,8.54
2018-12-06T10:36:34.522Z,8.46
2018-12-06T10:39:04.901Z,8.42
2018-12-06T10:41:34.404Z,8.40
2018-12-06T10:44:04.615Z,8.39
2018-12-06T10:46:34.487Z,8.39
2018-12-06T10:49:05.138Z,8.39
2018-12-06T10:51:42.742Z,8.40
2018-12-06T10:54:12.270Z,8.40
2018-12-06T10:56:42.102Z,8.43
2018-12-06T10:59:12.330Z,8.46
2018-12-06T11:01:46.831Z,8.49
2018-12-06T11:04:17.135Z,8.51
2018-12-06T11:06:47.199Z,8.40
2018-12-06T11:09:17.610Z,8.50
2018-12-06T11:11:48.202Z,8.53
2018-12-06T11:14:17.671Z,8.54
2018-12-06T11:16:47.698Z,8.58
2018-12-06T11:19:19.234Z,8.61
2018-12-06T11:21:48.742Z,8.63
2018-12-06T11:24:18.758Z,8.67
2018-12-06T11:26:48.530Z,8.73
2018-12-06T11:29:18.010Z,8.80
2018-12-06T11:31:48.110Z,8.85
2018-12-06T11:34:18.456Z,8.92
2018-12-06T11:36:48.552Z,8.94
2018-12-06T11:39:18.070Z,9.01
2018-12-06T11:41:48.088Z,9.04
2018-12-06T11:44:18.002Z,9.07
2018-12-06T11:46:47.533Z,9.07
2018-12-06T11:49:17.614Z,8.95
2018-12-06T11:51:47.710Z,9.05
2018-12-06T11:54:17.279Z,9.06
2018-12-06T11:56:47.174Z,9.09
2018-12-06T11:59:16.712Z,9.12
2018-12-06T12:01:46.239Z,9.17
2018-12-06T12:04:16.582Z,9.21
2018-12-06T12:06:46.079Z,9.25
2018-12-06T12:09:16.223Z,9.25
2018-12-06T12:11:45.599Z,9.24
2018-12-06T12:14:15.638Z,9.24
2018-12-06T12:16:45.244Z,9.26
2018-12-06T12:19:14.813Z,9.33
2018-12-06T12:21:44.351Z,9.41
2018-12-06T12:24:13.866Z,9.50
2018-12-06T12:26:43.945Z,9.59
2018-12-06T12:29:13.506Z,9.56
2018-12-06T12:31:43.004Z,9.71
2018-12-06T12:34:13.000Z,9.77
2018-12-06T12:36:42.505Z,9.83
2018-12-06T12:39:12.046Z,9.86
2018-12-06T12:41:41.885Z,9.68
2018-12-06T12:44:11.429Z,9.95
2018-12-06T12:46:40.965Z,10.03
2018-12-06T12:49:10.764Z,10.01
2018-12-06T12:51:40.359Z,10.18
2018-12-06T12:54:09.879Z,10.21
2018-12-06T12:56:39.603Z,10.26
2018-12-06T12:59:09.659Z,10.25
2018-12-06T13:01:39.226Z,10.27
2018-12-06T13:04:09.706Z,10.30
2018-12-06T13:06:39.819Z,10.33
2018-12-06T13:09:10.257Z,10.37
2018-12-06T13:11:40.089Z,10.40
2018-12-06T13:14:10.618Z,10.44
2018-12-06T13:16:40.176Z,10.48
2018-12-06T13:19:10.083Z,10.49
2018-12-06T13:21:39.650Z,9.73
2018-12-06T13:24:09.309Z,10.11
2018-12-06T13:26:39.155Z,10.36
2018-12-06T13:29:08.827Z,10.36
2018-12-06T13:31:38.490Z,10.36
2018-12-06T13:34:08.355Z,10.37
2018-12-06T13:36:37.882Z,10.36
2018-12-06T13:39:07.579Z,10.33
2018-12-06T13:41:37.383Z,10.30
2018-12-06T13:44:06.914Z,10.27
2018-12-06T13:46:36.450Z,10.23
2018-12-06T13:49:06.248Z,10.17
2018-12-06T13:51:36.114Z,10.08
2018-12-06T13:54:07.303Z,10.01
2018-12-06T13:56:37.125Z,9.95
2018-12-06T13:59:06.619Z,9.89
2018-12-06T14:01:38.090Z,9.86
2018-12-06T14:04:08.746Z,9.84
2018-12-06T14:06:41.728Z,9.83
2018-12-06T14:09:11.334Z,9.81
2018-12-06T14:11:41.891Z,9.60
2018-12-06T14:14:11.962Z,9.79
2018-12-06T14:16:42.628Z,9.76
2018-12-06T14:19:12.984Z,9.74
2018-12-06T14:21:43.338Z,9.70
2018-12-06T14:24:13.872Z,9.63
2018-12-06T14:26:44.706Z,9.62
2018-12-06T14:29:14.407Z,9.57
2018-12-06T14:31:43.906Z,9.54
2018-12-06T14:34:13.971Z,9.52
2018-12-06T14:36:44.533Z,9.53
2018-12-06T14:39:14.825Z,9.54
2018-12-06T14:41:45.865Z,9.53
2018-12-06T14:44:15.546Z,9.52
2018-12-06T14:46:46.086Z,9.52
2018-12-06T14:49:20.650Z,9.51
2018-12-06T14:51:50.575Z,9.52
2018-12-06T14:54:21.128Z,9.51
2018-12-06T14:56:51.202Z,9.49
2018-12-06T14:59:20.987Z,9.48
2018-12-06T15:01:50.802Z,9.48
2018-12-06T15:04:22.050Z,9.27
2018-12-06T15:06:51.920Z,9.48
2018-12-06T15:09:22.779Z,9.46
2018-12-06T15:11:53.661Z,9.45
2018-12-06T15:14:23.360Z,9.42
2018-12-06T15:16:53.246Z,9.43
2018-12-06T15:19:24.919Z,9.43
2018-12-06T15:21:54.697Z,8.57
2018-12-06T15:24:24.486Z,9.38
2018-12-06T15:26:54.566Z,9.35
2018-12-06T15:29:24.255Z,9.31
2018-12-06T15:31:53.975Z,9.30
2018-12-06T15:34:23.918Z,9.27
2018-12-06T15:36:53.772Z,9.26
2018-12-06T15:39:25.306Z,9.26
2018-12-06T15:41:55.183Z,9.25
2018-12-06T15:44:25.294Z,9.25
2018-12-06T15:46:56.173Z,8.73
2018-12-06T15:49:26.768Z,9.25
2018-12-06T15:51:57.225Z,9.26
2018-12-06T15:54:26.158Z,9.27
2018-12-06T15:56:56.011Z,9.28
2018-12-06T15:59:25.539Z,9.30
2018-12-06T16:01:55.239Z,9.31
2018-12-06T16:04:25.054Z,9.30
2018-12-06T16:06:54.607Z,9.31
2018-12-06T16:09:24.158Z,9.31
2018-12-06T16:11:54.066Z,9.31
2018-12-06T16:14:23.638Z,9.31
2018-12-06T16:16:53.119Z,9.22
2018-12-06T16:19:22.912Z,9.14
2018-12-06T16:21:52.518Z,9.34
2018-12-06T16:24:22.185Z,9.37
2018-12-06T16:26:56.240Z,9.37
2018-12-06T16:29:25.823Z,9.12
2018-12-06T16:31:55.822Z,9.39
2018-12-06T16:34:25.569Z,9.41
2018-12-06T16:36:55.414Z,9.43
2018-12-06T16:39:25.278Z,9.46
2018-12-06T16:41:54.833Z,9.47
2018-12-06T16:44:24.366Z,9.49
2018-12-06T16:46:54.283Z,9.51
2018-12-06T16:49:23.874Z,9.52
2018-12-06T16:51:53.454Z,9.52
2018-12-06T16:54:23.342Z,9.55
2018-12-06T16:56:52.980Z,9.56
2018-12-06T16:59:22.479Z,9.47
2018-12-06T17:01:52.294Z,9.60
2018-12-06T17:04:21.862Z,9.61
2018-12-06T17:06:51.458Z,9.63
2018-12-06T17:09:22.240Z,9.65
2018-12-06T17:11:51.762Z,9.68
2018-12-06T17:14:21.465Z,9.72
2018-12-06T17:16:51.386Z,9.74
2018-12-06T17:19:20.931Z,9.75
2018-12-06T17:21:50.566Z,9.77
2018-12-06T17:24:20.468Z,9.78
2018-12-06T17:26:50.259Z,9.37
2018-12-06T17:29:19.755Z,9.81
2018-12-06T17:31:49.572Z,9.82
2018-12-06T17:34:19.736Z,9.85
2018-12-06T17:36:50.767Z,9.89
2018-12-06T17:39:19.259Z,9.90
2018-12-06T17:41:48.779Z,9.61
2018-12-06T17:44:18.337Z,9.91
2018-12-06T17:46:48.213Z,9.90
2018-12-06T17:49:17.730Z,9.90
2018-12-06T17:51:47.232Z,9.91
2018-12-06T17:54:17.063Z,9.91
2018-12-06T17:56:46.617Z,9.89
2018-12-06T17:59:16.183Z,9.90
2018-12-06T18:01:46.171Z,9.91
2018-12-06T18:04:15.696Z,9.93
2018-12-06T18:06:45.239Z,9.95
2018-12-06T18:09:15.026Z,9.97
2018-12-06T18:11:44.645Z,9.99
2018-12-06T18:14:14.315Z,10.00
2018-12-06T18:16:44.234Z,10.01
2018-12-06T18:19:14.282Z,10.02
2018-12-06T18:21:43.802Z,10.02
2018-12-06T18:24:18.614Z,10.03
2018-12-06T18:26:43.509Z,9.74
2018-12-06T18:29:13.011Z,9.95
2018-12-06T18:31:42.861Z,9.97
2018-12-06T18:34:12.389Z,10.08
2018-12-06T18:36:42.028Z,10.09
2018-12-06T18:39:11.830Z,10.10
2018-12-06T18:41:41.314Z,10.12
2018-12-06T18:44:10.854Z,10.13
2018-12-06T18:46:41.014Z,10.03
2018-12-06T18:49:10.587Z,9.85
2018-12-06T18:51:40.357Z,10.16
2018-12-06T18:54:10.207Z,10.18
2018-12-06T18:56:39.727Z,10.19
2018-12-06T18:59:09.702Z,10.19
2018-12-06T19:01:39.599Z,10.23
2018-12-06T19:04:09.149Z,10.25
2018-12-06T19:06:42.816Z,10.08
2018-12-06T19:09:12.714Z,10.30
2018-12-06T19:11:42.338Z,10.32
2018-12-06T19:14:11.876Z,10.33
2018-12-06T19:16:42.642Z,10.35
2018-12-06T19:19:12.315Z,10.35
2018-12-06T19:21:41.915Z,10.37
2018-12-06T19:24:11.828Z,10.38
2018-12-06T19:26:41.375Z,10.39
2018-12-06T19:29:10.924Z,10.12
2018-12-06T19:31:40.827Z,10.41
2018-12-06T19:34:10.408Z,10.42
2018-12-06T19:36:39.944Z,10.43
2018-12-06T19:39:10.585Z,10.44
2018-12-06T19:41:40.207Z,10.46
2018-12-06T19:44:09.678Z,10.48
2018-12-06T19:46:39.598Z,10.49
2018-12-06T19:49:09.356Z,10.30
2018-12-06T19:51:39.539Z,10.51
2018-12-06T19:54:10.103Z,10.49
2018-12-06T19:56:39.682Z,10.52
2018-12-06T19:59:09.243Z,10.50
2018-12-06T20:01:38.999Z,10.50
2018-12-06T20:04:08.558Z,10.53
2018-12-06T20:06:38.198Z,10.53
2018-12-06T20:09:10.394Z,10.53
2018-12-06T20:11:39.994Z,10.53
2018-12-06T20:14:09.543Z,10.52
2018-12-06T20:16:39.398Z,10.50
2018-12-06T20:19:08.958Z,10.49
2018-12-06T20:21:38.452Z,10.27
2018-12-06T20:24:08.805Z,10.44
2018-12-06T20:26:38.466Z,10.46
2018-12-06T20:29:07.988Z,10.44
2018-12-06T20:31:37.959Z,10.45
2018-12-06T20:34:07.456Z,10.45
2018-12-06T20:36:37.008Z,10.46
2018-12-06T20:39:08.188Z,10.14
2018-12-06T20:41:37.750Z,9.98
2018-12-06T20:44:07.763Z,10.46
2018-12-06T20:46:37.585Z,10.47
2018-12-06T20:49:07.783Z,10.48
2018-12-06T20:51:37.315Z,10.37
2018-12-06T20:54:07.131Z,10.47
2018-12-06T20:56:36.683Z,10.46
2018-12-06T20:59:06.272Z,10.36
2018-12-06T21:01:36.086Z,10.47
2018-12-06T21:04:05.658Z,10.50
2018-12-06T21:06:35.307Z,10.23
2018-12-06T21:09:06.841Z,10.54
2018-12-06T21:11:36.407Z,10.58
2018-12-06T21:14:06.496Z,10.57
2018-12-06T21:16:36.359Z,10.62
2018-12-06T21:19:05.955Z,10.33
2018-12-06T21:21:35.501Z,10.66
2018-12-06T21:24:05.512Z,10.69
2018-12-06T21:26:35.029Z,10.69
2018-12-06T21:29:04.630Z,10.70
2018-12-06T21:31:34.412Z,10.71
2018-12-06T21:34:03.994Z,10.63
2018-12-06T21:36:33.594Z,10.74
2018-12-06T21:39:03.791Z,10.74
2018-12-06T21:41:33.379Z,10.75
2018-12-06T21:44:02.966Z,10.77
2018-12-06T21:46:32.845Z,10.77
2018-12-06T21:49:02.537Z,10.78
2018-12-06T21:51:32.114Z,10.59
2018-12-06T21:54:02.013Z,10.80
2018-12-06T21:56:31.619Z,10.82
2018-12-06T21:59:01.174Z,10.82
2018-12-06T22:01:31.375Z,10.83
2018-12-06T22:04:01.393Z,10.85
2018-12-06T22:06:31.351Z,10.68
2018-12-06T22:09:07.142Z,10.78
2018-12-06T22:11:37.311Z,10.89
2018-12-06T22:14:07.583Z,10.91
2018-12-06T22:16:38.968Z,10.92
2018-12-06T22:19:09.675Z,10.84
2018-12-06T22:21:39.829Z,10.98
2018-12-06T22:24:09.670Z,10.89
2018-12-06T22:26:39.523Z,11.01
2018-12-06T22:29:10.081Z,11.02
2018-12-06T22:31:39.902Z,11.03
2018-12-06T22:34:09.771Z,11.04
2018-12-06T22:36:39.990Z,10.75
2018-12-06T22:39:10.008Z,11.05
2018-12-06T22:41:39.953Z,10.76
2018-12-06T22:44:10.592Z,11.07
2018-12-06T22:46:40.446Z,11.07
2018-12-06T22:49:10.330Z,11.07
2018-12-06T22:51:40.521Z,11.07
2018-12-06T22:54:10.386Z,11.08
2018-12-06T22:56:45.926Z,11.10
2018-12-06T22:59:16.726Z,11.08
2018-12-06T23:01:46.730Z,11.09
2018-12-06T23:04:16.620Z,11.10
2018-12-06T23:06:46.847Z,11.13
2018-12-06T23:09:16.375Z,11.13
2018-12-06T23:11:46.046Z,11.14
2018-12-06T23:14:15.719Z,11.15
2018-12-06T23:16:45.933Z,11.15
2018-12-06T23:19:15.612Z,11.16
2018-12-06T23:21:47.313Z,11.18
2018-12-06T23:24:16.655Z,11.18
2018-12-06T23:26:46.255Z,11.21
2018-12-06T23:29:16.651Z,11.23
2018-12-06T23:31:47.410Z,11.24
2018-12-06T23:34:17.794Z,11.25
2018-12-06T23:36:47.318Z,10.96
2018-12-06T23:39:16.834Z,11.24
2018-12-06T23:41:46.726Z,10.85
2018-12-06T23:44:16.846Z,11.24
2018-12-06T23:46:46.871Z,11.23
2018-12-06T23:49:17.227Z,11.24
2018-12-06T23:51:46.779Z,11.25
2018-12-06T23:54:16.266Z,10.42
2018-12-06T23:56:46.575Z,11.24
2018-12-06T23:59:16.072Z,11.24
